This is the latest recevied weather packets stored in our database for station/object WP3XM. If no packets are shown the sender has not sent any weather packets the latest 10 day(s).
| Time | Temp. | Humidity | Pressure | Rain* | Wind** | Luminosity | Snow |
|---|---|---|---|---|---|---|---|
| 1777899881 | 27.22° C | 84% | 1018.6 hPa | 0 mm | - | 174 W/m² | - |
| 1777899578 | 26.67° C | 85% | 1018.5 hPa | 0 mm | - | 288 W/m² | - |
| 1777899276 | 26.67° C | 87% | 1018.4 hPa | 0 mm | - | 671 W/m² | - |
| 1777898973 | 26.11° C | 87% | 1018.6 hPa | 1.27 mm | - | 416 W/m² | - |
| 1777898670 | 26.11° C | 87% | 1018.8 hPa | 1.27 mm | - | 185 W/m² | - |
| 1777898366 | 26.67° C | 84% | 1018.5 hPa | 0 mm | - | 224 W/m² | - |
| 1777898065 | 27.22° C | 81% | 1018.5 hPa | 0 mm | - | 96 W/m² | - |
| 1777897760 | 27.22° C | 80% | 1018.5 hPa | 0 mm | - | 122 W/m² | - |
| 1777897457 | 27.78° C | 79% | 1018.6 hPa | 0 mm | - | 160 W/m² | - |
| 1777897153 | 27.78° C | 78% | 1018.5 hPa | 0 mm | - | 195 W/m² | - |
| 1777896849 | 27.22° C | 81% | 1018.5 hPa | 0 mm | - | 563 W/m² | - |
| 1777896547 | 27.22° C | 81% | 1018.5 hPa | 0 mm | - | 462 W/m² | - |
| 1777896243 | 26.67° C | 81% | 1018.6 hPa | 0 mm | - | 148 W/m² | - |
| 1777895942 | 27.22° C | 80% | 1018.6 hPa | 0 mm | - | 132 W/m² | - |
| 1777895639 | 27.22° C | 80% | 1018.7 hPa | 0 mm | - | 112 W/m² | - |
| 1777895336 | 26.67° C | 82% | 1018.4 hPa | 0 mm | - | 422 W/m² | - |
| 1777895034 | 26.67° C | 83% | 1018.6 hPa | 0 mm | - | 144 W/m² | - |
| 1777894731 | 26.67° C | 83% | 1018.5 hPa | 0 mm | - | 130 W/m² | - |
| 1777894428 | 26.11° C | 85% | 1018.7 hPa | 0 mm | - | 210 W/m² | - |
| 1777894125 | 26.11° C | 85% | 1018.4 hPa | 0 mm | - | 191 W/m² | - |
| 1777893822 | 26.11° C | 85% | 1018.3 hPa | 0 mm | - | 99 W/m² | - |
| 1777893519 | 25.56° C | 86% | 1018.3 hPa | 0 mm | - | 65 W/m² | - |
| 1777893215 | 25.56° C | 87% | 1018.4 hPa | 0 mm | - | 75 W/m² | - |
| 1777892912 | 25° C | 87% | 1018.3 hPa | 0 mm | - | 57 W/m² | - |
| 1777892608 | 25° C | 88% | 1018.2 hPa | 0 mm | - | 60 W/m² | - |
* Rain latest hour (hover to see other rain measurements)
** Current wind speed in m/s (hover to see current wind gust speed)